createdAt,value
2022-08-11T00:01:49.799Z,66.25
2022-08-11T00:04:39.391Z,65.53
2022-08-11T00:07:24.131Z,66.15
2022-08-11T00:10:12.898Z,66.05
2022-08-11T00:12:58.701Z,65.98
2022-08-11T00:15:48.728Z,66.84
2022-08-11T00:18:41.345Z,66.39
2022-08-11T00:22:02.856Z,66.04
2022-08-11T00:24:53.589Z,66.58
2022-08-11T00:27:42.852Z,66.51
2022-08-11T00:30:26.736Z,66.29
2022-08-11T00:33:10.813Z,66.25
2022-08-11T00:36:00.890Z,66.27
2022-08-11T00:38:47.573Z,66.08
2022-08-11T00:41:35.625Z,65.93
2022-08-11T00:44:52.844Z,66.39
2022-08-11T00:47:56.501Z,65.71
2022-08-11T00:50:58.988Z,66.29
2022-08-11T00:53:55.545Z,65.75
2022-08-11T00:57:36.031Z,65.61
2022-08-11T01:00:23.363Z,65.92
2022-08-11T01:03:29.315Z,66.18
2022-08-11T01:06:39.578Z,65.73
2022-08-11T01:09:38.736Z,65.46
2022-08-11T01:12:43.081Z,65.41
2022-08-11T01:16:07.693Z,65.07
2022-08-11T01:19:25.352Z,64.61
2022-08-11T01:22:43.237Z,65.12
2022-08-11T01:25:57.936Z,64.64
2022-08-11T01:29:21.963Z,64.61
2022-08-11T01:32:59.709Z,64.52
2022-08-11T01:36:22.873Z,64.99
2022-08-11T01:39:48.787Z,64.85
2022-08-11T01:43:38.484Z,65.61
2022-08-11T01:46:28.185Z,65.51
2022-08-11T01:50:06.643Z,65.91
2022-08-11T01:52:36.231Z,66.25
2022-08-11T01:55:28.832Z,66.15
2022-08-11T01:58:28.376Z,65.55
2022-08-11T02:01:44.585Z,65.58
2022-08-11T02:04:35.718Z,65.53
2022-08-11T02:07:31.225Z,66.14
2022-08-11T02:10:42.731Z,66.11
2022-08-11T02:14:01.817Z,66.83
2022-08-11T02:16:56.520Z,66.57
2022-08-11T02:20:11.219Z,66.98
2022-08-11T02:24:04.191Z,67.16
2022-08-11T02:26:25.167Z,67.45
2022-08-11T02:29:18.219Z,67.83
2022-08-11T02:32:30.674Z,67.71
2022-08-11T02:35:24.034Z,67.32
2022-08-11T02:38:18.611Z,67.66
2022-08-11T02:41:30.766Z,67.97
2022-08-11T02:44:31.160Z,67.77
2022-08-11T02:47:25.790Z,68.05
2022-08-11T02:50:23.379Z,67.90
2022-08-11T02:53:15.916Z,67.56
2022-08-11T02:56:10.121Z,67.97
2022-08-11T02:59:18.389Z,67.99
2022-08-11T03:02:12.371Z,69.00
2022-08-11T03:05:09.296Z,68.03
2022-08-11T03:08:09.621Z,68.00
2022-08-11T03:11:19.827Z,67.42
2022-08-11T03:14:33.249Z,67.81
2022-08-11T03:17:29.807Z,66.82
2022-08-11T03:20:37.906Z,66.37
2022-08-11T03:23:31.280Z,65.93
2022-08-11T03:26:25.546Z,67.04
2022-08-11T03:29:18.266Z,66.14
2022-08-11T03:32:12.692Z,66.35
2022-08-11T03:35:01.461Z,67.20
2022-08-11T03:37:57.807Z,67.88
2022-08-11T03:42:01.948Z,69.02
2022-08-11T03:44:39.403Z,67.70
2022-08-11T03:47:52.357Z,67.68
2022-08-11T03:50:56.327Z,68.16
2022-08-11T03:53:50.630Z,68.17
2022-08-11T03:57:09.116Z,69.72
2022-08-11T04:00:22.716Z,68.71
2022-08-11T04:04:09.494Z,69.51
2022-08-11T04:07:27.352Z,70.24
2022-08-11T04:10:47.582Z,70.74
2022-08-11T04:14:23.473Z,71.17
2022-08-11T04:17:34.085Z,72.08
2022-08-11T04:20:31.653Z,72.74
2022-08-11T04:24:36.334Z,72.84
2022-08-11T04:27:14.747Z,72.47
2022-08-11T04:30:09.247Z,72.88
2022-08-11T04:33:35.388Z,73.06
2022-08-11T04:37:03.870Z,72.84
2022-08-11T04:40:13.543Z,72.82
2022-08-11T04:44:02.684Z,72.64
2022-08-11T04:47:58.132Z,72.48
2022-08-11T04:51:17.484Z,72.38
2022-08-11T04:54:34.343Z,72.55
2022-08-11T04:57:51.605Z,71.60
2022-08-11T05:01:10.804Z,70.24
2022-08-11T05:04:31.540Z,70.30
2022-08-11T05:07:52.735Z,69.29
2022-08-11T05:10:52.688Z,68.95
2022-08-11T05:14:03.174Z,69.15
2022-08-11T05:17:09.918Z,68.60
2022-08-11T05:20:11.183Z,67.73
2022-08-11T05:23:12.621Z,67.34
2022-08-11T05:26:47.853Z,67.36
2022-08-11T05:29:58.471Z,67.13
2022-08-11T05:33:03.831Z,66.58
2022-08-11T05:36:02.338Z,65.96
2022-08-11T05:39:18.339Z,65.42
2022-08-11T05:42:29.982Z,64.69
2022-08-11T05:45:58.178Z,64.74
2022-08-11T05:49:00.175Z,64.17
2022-08-11T05:52:05.682Z,63.33
2022-08-11T05:55:21.186Z,61.61
2022-08-11T05:58:06.772Z,62.10
2022-08-11T06:00:54.289Z,61.77
2022-08-11T06:03:59.185Z,60.58
2022-08-11T06:06:52.267Z,60.23
2022-08-11T06:09:37.881Z,59.19
2022-08-11T06:12:24.970Z,58.77
2022-08-11T06:15:13.092Z,58.03
2022-08-11T06:18:00.868Z,58.37
2022-08-11T06:20:49.661Z,57.31
2022-08-11T06:23:35.939Z,57.05
2022-08-11T06:26:22.287Z,56.11
2022-08-11T06:29:08.285Z,56.10
2022-08-11T06:31:54.964Z,55.85
2022-08-11T06:35:06.474Z,54.48
2022-08-11T06:38:06.465Z,54.59
2022-08-11T06:41:08.939Z,54.47
2022-08-11T06:43:56.413Z,53.37
2022-08-11T06:46:41.897Z,53.16
2022-08-11T06:49:52.528Z,53.03
2022-08-11T06:52:40.181Z,51.98
2022-08-11T06:55:56.721Z,51.21
2022-08-11T06:59:00.467Z,50.89
2022-08-11T07:01:55.248Z,51.23
2022-08-11T07:04:44.716Z,50.14
2022-08-11T07:08:35.812Z,49.25
2022-08-11T07:12:41.298Z,48.31
2022-08-11T07:16:12.928Z,47.62
2022-08-11T07:19:05.967Z,48.81
2022-08-11T07:22:08.071Z,48.26
2022-08-11T07:25:16.741Z,48.46
2022-08-11T07:28:22.291Z,48.16
2022-08-11T07:31:14.159Z,47.66
2022-08-11T07:34:15.856Z,47.75
2022-08-11T07:37:10.154Z,47.58
2022-08-11T07:39:55.345Z,48.02
2022-08-11T07:42:44.817Z,48.03
2022-08-11T07:45:47.842Z,47.46
2022-08-11T07:48:49.820Z,47.79
2022-08-11T07:51:51.330Z,47.48
2022-08-11T07:54:36.756Z,47.03
2022-08-11T07:58:14.251Z,46.66
2022-08-11T08:01:03.545Z,45.19
2022-08-11T08:04:12.510Z,45.37
2022-08-11T08:07:14.695Z,44.17
2022-08-11T08:10:17.039Z,43.34
2022-08-11T08:13:19.645Z,43.82
2022-08-11T08:16:22.620Z,43.67
2022-08-11T08:19:06.983Z,42.94
2022-08-11T08:21:51.915Z,41.74
2022-08-11T08:24:36.262Z,41.72
2022-08-11T08:27:22.060Z,42.32
2022-08-11T08:30:25.319Z,41.78
2022-08-11T08:33:13.316Z,42.58
2022-08-11T08:36:12.918Z,42.01
2022-08-11T08:38:57.047Z,41.32
2022-08-11T08:41:42.719Z,40.56
2022-08-11T08:44:38.232Z,41.35
2022-08-11T08:47:42.159Z,39.71
2022-08-11T08:50:47.127Z,39.81
2022-08-11T08:53:35.653Z,40.70
2022-08-11T08:56:20.707Z,40.25
2022-08-11T08:59:08.267Z,40.36
2022-08-11T09:01:59.042Z,40.37
2022-08-11T09:04:46.822Z,40.33
2022-08-11T09:07:38.742Z,40.37
2022-08-11T09:10:24.587Z,39.33
2022-08-11T09:13:09.564Z,39.44
2022-08-11T09:15:56.369Z,38.76
2022-08-11T09:18:44.696Z,38.76
2022-08-11T09:21:38.589Z,39.49
2022-08-11T09:24:53.259Z,38.43
2022-08-11T09:27:39.197Z,37.99
2022-08-11T09:30:34.761Z,38.94
2022-08-11T09:33:18.777Z,38.63
2022-08-11T09:36:24.157Z,37.66
2022-08-11T09:39:26.687Z,38.21
2022-08-11T09:42:16.381Z,37.39
2022-08-11T09:45:01.930Z,37.66
2022-08-11T09:47:47.803Z,37.09
2022-08-11T09:50:32.259Z,37.19
2022-08-11T09:53:37.251Z,37.46
2022-08-11T09:56:43.218Z,36.35
2022-08-11T09:59:28.601Z,36.11
2022-08-11T10:02:12.976Z,36.90
2022-08-11T10:05:19.606Z,36.84
2022-08-11T10:08:03.600Z,37.29
2022-08-11T10:10:48.778Z,37.40
2022-08-11T10:14:31.260Z,37.34
2022-08-11T10:17:03.037Z,36.51
2022-08-11T10:20:04.270Z,36.01
2022-08-11T10:23:06.969Z,36.32
2022-08-11T10:26:23.514Z,36.20
2022-08-11T10:29:30.245Z,35.25
2022-08-11T10:32:57.961Z,35.89
2022-08-11T10:35:45.323Z,36.42
2022-08-11T10:38:31.308Z,35.12
2022-08-11T10:41:33.421Z,35.60
2022-08-11T10:44:18.322Z,35.52
2022-08-11T10:47:21.305Z,35.63
2022-08-11T10:50:28.559Z,35.25
2022-08-11T10:53:31.612Z,35.71
2022-08-11T10:56:34.005Z,35.18
2022-08-11T10:59:18.720Z,34.71
2022-08-11T11:02:03.339Z,34.50
2022-08-11T11:05:14.217Z,34.55
2022-08-11T11:08:04.256Z,34.17
2022-08-11T11:10:49.518Z,34.05
2022-08-11T11:13:55.539Z,34.46
2022-08-11T11:17:14.227Z,33.95
2022-08-11T11:20:00.557Z,33.94
2022-08-11T11:22:52.567Z,33.22
2022-08-11T11:26:11.077Z,34.10
2022-08-11T11:29:25.336Z,33.81
2022-08-11T11:32:25.341Z,33.77
2022-08-11T11:35:37.260Z,33.09
2022-08-11T11:38:22.852Z,33.32
2022-08-11T11:41:24.391Z,32.90
2022-08-11T11:44:09.137Z,33.05
2022-08-11T11:46:56.589Z,32.82
2022-08-11T11:49:44.261Z,32.80
2022-08-11T11:52:28.901Z,32.23
2022-08-11T11:55:14.538Z,32.20
2022-08-11T11:58:18.790Z,32.68
2022-08-11T12:01:20.262Z,32.59
2022-08-11T12:04:06.995Z,31.51
2022-08-11T12:06:52.478Z,31.88
2022-08-11T12:09:36.665Z,32.45
2022-08-11T12:12:40.360Z,32.91
2022-08-11T12:16:04.296Z,31.64
2022-08-11T12:18:31.026Z,31.92
2022-08-11T12:21:16.673Z,32.25
2022-08-11T12:27:42.679Z,32.70
2022-08-11T12:30:27.050Z,32.09
2022-08-11T12:33:11.168Z,31.67
2022-08-11T12:36:00.773Z,32.11
2022-08-11T12:38:51.442Z,31.26
2022-08-11T12:41:54.750Z,31.75
2022-08-11T12:44:57.491Z,31.35
2022-08-11T12:48:47.808Z,31.65
2022-08-11T12:51:22.250Z,31.33
2022-08-11T12:54:13.572Z,31.47
2022-08-11T12:57:24.213Z,31.28
2022-08-11T13:00:42.249Z,32.10
2022-08-11T13:03:43.819Z,31.64
2022-08-11T13:06:37.699Z,31.57
2022-08-11T13:09:24.249Z,32.30
2022-08-11T13:12:25.408Z,32.27
2022-08-11T13:15:12.070Z,32.57
2022-08-11T13:17:57.692Z,32.06
2022-08-11T13:20:44.350Z,31.43
2022-08-11T13:23:30.289Z,31.42
2022-08-11T13:26:14.244Z,32.14
2022-08-11T13:28:58.270Z,32.18
2022-08-11T13:31:44.030Z,32.35
2022-08-11T13:34:31.487Z,32.58
2022-08-11T13:37:17.804Z,31.86
2022-08-11T13:40:02.464Z,32.18
2022-08-11T13:42:48.454Z,31.96
2022-08-11T13:45:32.475Z,31.99
2022-08-11T13:48:18.415Z,31.14
2022-08-11T13:51:21.221Z,32.84
2022-08-11T13:54:07.180Z,32.39
2022-08-11T13:56:54.231Z,32.67
2022-08-11T13:59:51.693Z,32.68
2022-08-11T14:02:37.654Z,33.05
2022-08-11T14:05:28.742Z,32.88
2022-08-11T14:08:37.656Z,32.39
2022-08-11T14:12:19.951Z,31.08
2022-08-11T14:14:48.442Z,31.46
2022-08-11T14:17:46.967Z,31.36
2022-08-11T14:20:49.235Z,31.14
2022-08-11T14:23:39.151Z,31.81
2022-08-11T14:26:27.797Z,31.57
2022-08-11T14:29:15.110Z,32.13
2022-08-11T14:32:01.838Z,32.41
2022-08-11T14:34:46.627Z,31.56
2022-08-11T14:37:31.069Z,31.17
2022-08-11T14:40:33.313Z,31.00
2022-08-11T14:44:05.848Z,32.04
2022-08-11T14:46:58.531Z,31.90
2022-08-11T14:49:58.113Z,31.70
2022-08-11T14:52:52.052Z,32.25
2022-08-11T14:55:57.956Z,31.96
2022-08-11T14:58:44.167Z,32.14
2022-08-11T15:01:45.405Z,32.08
2022-08-11T15:04:36.491Z,31.44
2022-08-11T15:07:30.048Z,31.04
2022-08-11T15:10:14.326Z,31.59
2022-08-11T15:13:00.567Z,31.53
2022-08-11T15:16:00.501Z,31.38
2022-08-11T15:18:47.722Z,32.07
2022-08-11T15:21:49.092Z,31.29
2022-08-11T15:24:35.566Z,31.61
2022-08-11T15:27:40.173Z,31.95
2022-08-11T15:30:45.471Z,32.31
2022-08-11T15:33:48.933Z,31.54
2022-08-11T15:36:53.229Z,31.15
2022-08-11T15:40:01.399Z,31.84
2022-08-11T15:43:12.695Z,31.55
2022-08-11T15:46:02.525Z,31.82
2022-08-11T15:48:51.622Z,31.70
2022-08-11T15:51:38.535Z,32.02
2022-08-11T15:54:26.561Z,31.97
2022-08-11T15:57:39.741Z,32.35
2022-08-11T16:00:41.744Z,32.34
2022-08-11T16:04:06.721Z,32.32
2022-08-11T16:06:57.251Z,32.47
2022-08-11T16:09:51.618Z,32.43
2022-08-11T16:12:41.045Z,32.80
2022-08-11T16:15:42.615Z,32.96
2022-08-11T16:18:40.765Z,32.92
2022-08-11T16:21:34.587Z,32.91
2022-08-11T16:27:01.380Z,32.95
2022-08-11T16:27:26.928Z,33.42
2022-08-11T16:30:12.007Z,33.63
2022-08-11T16:32:57.772Z,33.96
2022-08-11T16:36:03.136Z,34.03
2022-08-11T16:38:48.127Z,34.74
2022-08-11T16:41:52.299Z,34.66
2022-08-11T16:44:54.932Z,35.25
2022-08-11T16:48:01.876Z,35.34
2022-08-11T16:50:45.193Z,35.70
2022-08-11T16:53:59.779Z,36.23
2022-08-11T16:56:43.924Z,36.37
2022-08-11T16:59:32.730Z,36.38
2022-08-11T17:02:41.575Z,36.62
2022-08-11T17:05:55.289Z,36.56
2022-08-11T17:09:05.406Z,37.54
2022-08-11T17:12:11.906Z,37.71
2022-08-11T17:14:59.820Z,37.47
2022-08-11T17:17:44.332Z,38.25
2022-08-11T17:20:41.171Z,38.25
2022-08-11T17:23:45.492Z,38.14
2022-08-11T17:26:48.521Z,38.21
2022-08-11T17:29:54.464Z,38.58
2022-08-11T17:33:00.416Z,38.78
2022-08-11T17:35:45.452Z,38.77
2022-08-11T17:38:31.142Z,38.88
2022-08-11T17:41:42.403Z,39.71
2022-08-11T17:44:46.159Z,39.87
2022-08-11T17:47:49.304Z,40.12
2022-08-11T17:50:34.866Z,39.87
2022-08-11T17:53:38.890Z,40.16
2022-08-11T17:56:41.795Z,40.82
2022-08-11T17:59:49.128Z,40.61
2022-08-11T18:02:55.341Z,41.17
2022-08-11T18:05:44.746Z,41.06
2022-08-11T18:08:47.830Z,41.45
2022-08-11T18:12:10.692Z,41.04
2022-08-11T18:15:15.647Z,41.12
2022-08-11T18:18:19.107Z,41.29
2022-08-11T18:21:22.015Z,41.83
2022-08-11T18:24:28.308Z,42.23
2022-08-11T18:27:33.047Z,42.35
2022-08-11T18:30:36.876Z,42.13
2022-08-11T18:34:03.721Z,42.55
2022-08-11T18:37:08.610Z,42.76
2022-08-11T18:40:24.826Z,42.80
2022-08-11T18:43:29.610Z,42.85
2022-08-11T18:46:36.932Z,43.22
2022-08-11T18:50:02.397Z,42.93
2022-08-11T18:53:09.721Z,43.19
2022-08-11T18:56:14.906Z,43.71
2022-08-11T18:59:17.869Z,43.53
2022-08-11T19:02:24.788Z,43.52
2022-08-11T19:06:31.724Z,43.68
2022-08-11T19:08:56.291Z,43.78
2022-08-11T19:11:59.768Z,43.99
2022-08-11T19:15:03.765Z,43.96
2022-08-11T19:18:08.777Z,43.81
2022-08-11T19:21:14.325Z,43.79
2022-08-11T19:24:19.979Z,43.87
2022-08-11T19:27:22.081Z,44.24
2022-08-11T19:30:24.389Z,44.53
2022-08-11T19:33:59.838Z,44.84
2022-08-11T19:36:51.339Z,44.85
2022-08-11T19:39:54.536Z,44.77
2022-08-11T19:42:57.204Z,45.28
2022-08-11T19:46:00.384Z,45.33
2022-08-11T19:49:06.052Z,45.37
2022-08-11T19:52:09.203Z,45.33
2022-08-11T19:55:11.374Z,45.36
2022-08-11T19:58:14.120Z,45.62
2022-08-11T20:01:15.733Z,46.27
2022-08-11T20:04:18.404Z,45.98
2022-08-11T20:07:21.311Z,45.89
2022-08-11T20:10:26.510Z,46.07
2022-08-11T20:13:30.132Z,46.35
2022-08-11T20:16:34.790Z,46.41
2022-08-11T20:19:56.350Z,46.63
2022-08-11T20:22:59.845Z,46.84
2022-08-11T20:26:27.623Z,46.78
2022-08-11T20:29:25.190Z,46.87
2022-08-11T20:32:29.944Z,46.71
2022-08-11T20:35:32.817Z,46.79
2022-08-11T20:38:35.077Z,46.57
2022-08-11T20:41:49.227Z,47.22
2022-08-11T20:45:01.693Z,46.91
2022-08-11T20:48:06.356Z,46.73
2022-08-11T20:51:09.969Z,46.97
2022-08-11T20:54:19.023Z,47.55
2022-08-11T20:58:00.106Z,47.21
2022-08-11T21:01:03.153Z,47.54
2022-08-11T21:04:04.852Z,47.44
2022-08-11T21:07:10.752Z,47.43
2022-08-11T21:10:23.474Z,47.35
2022-08-11T21:13:29.315Z,47.42
2022-08-11T21:16:35.651Z,47.29
2022-08-11T21:19:59.962Z,47.44
2022-08-11T21:23:14.970Z,47.72
2022-08-11T21:26:29.352Z,47.98
2022-08-11T21:29:31.807Z,48.24
2022-08-11T21:32:34.242Z,47.84
2022-08-11T21:35:36.444Z,48.62
2022-08-11T21:38:49.602Z,47.92
2022-08-11T21:41:51.748Z,48.29
2022-08-11T21:44:53.216Z,48.57
2022-08-11T21:48:01.142Z,48.57
2022-08-11T21:51:03.452Z,48.74
2022-08-11T21:54:07.691Z,48.99
2022-08-11T21:57:10.887Z,49.04
2022-08-11T22:00:14.236Z,49.31
2022-08-11T22:03:16.976Z,49.16
2022-08-11T22:06:19.608Z,49.08
2022-08-11T22:09:23.695Z,49.09
2022-08-11T22:12:33.402Z,49.14
2022-08-11T22:15:36.708Z,49.36
2022-08-11T22:18:38.063Z,49.84
2022-08-11T22:22:02.328Z,49.78
2022-08-11T22:25:11.659Z,50.54
2022-08-11T22:28:18.306Z,50.50
2022-08-11T22:31:20.294Z,50.71
2022-08-11T22:34:21.516Z,50.32
2022-08-11T22:37:27.533Z,50.71
2022-08-11T22:40:31.783Z,51.05
2022-08-11T22:43:33.034Z,50.36
2022-08-11T22:46:37.090Z,50.55
2022-08-11T22:49:42.638Z,50.38
2022-08-11T22:53:01.098Z,51.09
2022-08-11T22:56:05.341Z,50.70
2022-08-11T22:59:07.735Z,51.19
2022-08-11T23:02:09.947Z,51.42
2022-08-11T23:05:12.675Z,51.11
2022-08-11T23:08:16.180Z,51.47
2022-08-11T23:11:19.225Z,51.19
2022-08-11T23:14:20.691Z,51.75
2022-08-11T23:17:21.978Z,51.52
2022-08-11T23:20:32.961Z,52.06
2022-08-11T23:23:37.444Z,52.26
2022-08-11T23:26:43.213Z,52.07
2022-08-11T23:29:45.790Z,51.98
2022-08-11T23:32:49.763Z,52.36
2022-08-11T23:35:55.459Z,52.32
2022-08-11T23:38:59.373Z,52.87
2022-08-11T23:42:02.987Z,53.05
2022-08-11T23:45:04.544Z,52.85
2022-08-11T23:48:09.652Z,52.56
2022-08-11T23:51:11.672Z,52.61
2022-08-11T23:54:14.155Z,53.27
2022-08-11T23:57:17.376Z,52.81
